sensor_id;sensor_type;location;lat;lon;timestamp;temperature;humidity
20141;DHT22;10231;47.702;9.826;2023-01-16T00:01:12;2.30;99.90
20141;DHT22;10231;47.702;9.826;2023-01-16T00:03:38;2.30;99.90
20141;DHT22;10231;47.702;9.826;2023-01-16T00:06:04;2.20;99.90
20141;DHT22;10231;47.702;9.826;2023-01-16T00:08:30;2.20;99.90
20141;DHT22;10231;47.702;9.826;2023-01-16T00:10:56;2.20;99.90
20141;DHT22;10231;47.702;9.826;2023-01-16T00:13:21;2.30;99.90
20141;DHT22;10231;47.702;9.826;2023-01-16T00:15:49;2.40;99.90
20141;DHT22;10231;47.702;9.826;2023-01-16T00:18:15;2.40;99.90
20141;DHT22;10231;47.702;9.826;2023-01-16T00:20:40;2.40;99.90
20141;DHT22;10231;47.702;9.826;2023-01-16T00:23:06;2.50;99.90
20141;DHT22;10231;47.702;9.826;2023-01-16T00:25:31;2.60;99.90
20141;DHT22;10231;47.702;9.826;2023-01-16T00:27:57;2.50;99.90
20141;DHT22;10231;47.702;9.826;2023-01-16T00:30:23;2.50;99.90
20141;DHT22;10231;47.702;9.826;2023-01-16T00:32:49;2.40;99.90
20141;DHT22;10231;47.702;9.826;2023-01-16T00:35:15;2.50;99.90
20141;DHT22;10231;47.702;9.826;2023-01-16T00:37:41;2.50;99.90
20141;DHT22;10231;47.702;9.826;2023-01-16T00:40:06;2.40;99.90
20141;DHT22;10231;47.702;9.826;2023-01-16T00:42:32;2.40;99.90
20141;DHT22;10231;47.702;9.826;2023-01-16T00:44:58;2.30;99.90
20141;DHT22;10231;47.702;9.826;2023-01-16T00:47:23;2.30;99.90
20141;DHT22;10231;47.702;9.826;2023-01-16T00:49:49;2.10;99.90
20141;DHT22;10231;47.702;9.826;2023-01-16T00:52:14;2.10;99.90
20141;DHT22;10231;47.702;9.826;2023-01-16T00:54:40;2.10;99.90
20141;DHT22;10231;47.702;9.826;2023-01-16T00:57:05;2.00;99.90
20141;DHT22;10231;47.702;9.826;2023-01-16T00:59:31;2.00;99.90
20141;DHT22;10231;47.702;9.826;2023-01-16T01:01:56;2.00;99.90
20141;DHT22;10231;47.702;9.826;2023-01-16T01:04:22;2.00;99.90
20141;DHT22;10231;47.702;9.826;2023-01-16T01:06:48;2.00;99.90
20141;DHT22;10231;47.702;9.826;2023-01-16T01:09:13;2.00;99.90
20141;DHT22;10231;47.702;9.826;2023-01-16T01:11:39;2.00;99.90
20141;DHT22;10231;47.702;9.826;2023-01-16T01:14:04;2.00;99.90
20141;DHT22;10231;47.702;9.826;2023-01-16T01:16:30;1.90;99.90
20141;DHT22;10231;47.702;9.826;2023-01-16T01:18:55;1.90;99.90
20141;DHT22;10231;47.702;9.826;2023-01-16T01:21:21;1.90;99.90
20141;DHT22;10231;47.702;9.826;2023-01-16T01:23:46;1.80;99.90
20141;DHT22;10231;47.702;9.826;2023-01-16T01:26:14;1.80;99.90
20141;DHT22;10231;47.702;9.826;2023-01-16T01:28:40;1.80;99.90
20141;DHT22;10231;47.702;9.826;2023-01-16T01:31:08;1.80;99.90
20141;DHT22;10231;47.702;9.826;2023-01-16T01:33:34;1.70;99.90
20141;DHT22;10231;47.702;9.826;2023-01-16T01:36:01;1.60;99.90
20141;DHT22;10231;47.702;9.826;2023-01-16T01:38:26;1.60;99.90
20141;DHT22;10231;47.702;9.826;2023-01-16T01:40:52;1.60;99.90
20141;DHT22;10231;47.702;9.826;2023-01-16T01:43:18;1.50;99.90
20141;DHT22;10231;47.702;9.826;2023-01-16T01:45:50;1.50;99.90
20141;DHT22;10231;47.702;9.826;2023-01-16T01:48:27;1.60;99.90
20141;DHT22;10231;47.702;9.826;2023-01-16T01:51:34;1.50;99.90
20141;DHT22;10231;47.702;9.826;2023-01-16T01:53:57;1.50;99.90
20141;DHT22;10231;47.702;9.826;2023-01-16T01:56:32;1.50;99.90
20141;DHT22;10231;47.702;9.826;2023-01-16T01:59:06;1.50;99.90
20141;DHT22;10231;47.702;9.826;2023-01-16T02:01:33;1.50;99.90
20141;DHT22;10231;47.702;9.826;2023-01-16T02:04:03;1.40;99.90
20141;DHT22;10231;47.702;9.826;2023-01-16T02:06:34;1.40;99.90
20141;DHT22;10231;47.702;9.826;2023-01-16T02:09:03;1.30;99.90
20141;DHT22;10231;47.702;9.826;2023-01-16T02:11:40;1.20;99.90
20141;DHT22;10231;47.702;9.826;2023-01-16T02:14:09;1.20;99.90
20141;DHT22;10231;47.702;9.826;2023-01-16T02:16:37;1.20;99.90
20141;DHT22;10231;47.702;9.826;2023-01-16T02:33:04;1.30;99.90
20141;DHT22;10231;47.702;9.826;2023-01-16T02:35:52;1.30;99.90
20141;DHT22;10231;47.702;9.826;2023-01-16T02:39:09;1.30;99.90
20141;DHT22;10231;47.702;9.826;2023-01-16T02:43:56;1.10;99.90
20141;DHT22;10231;47.702;9.826;2023-01-16T02:47:02;1.10;99.90
20141;DHT22;10231;47.702;9.826;2023-01-16T02:49:35;1.10;99.90
20141;DHT22;10231;47.702;9.826;2023-01-16T02:55:04;1.20;99.90
20141;DHT22;10231;47.702;9.826;2023-01-16T02:57:37;1.20;99.90
20141;DHT22;10231;47.702;9.826;2023-01-16T03:00:06;1.20;99.90
20141;DHT22;10231;47.702;9.826;2023-01-16T03:02:32;1.10;99.90
20141;DHT22;10231;47.702;9.826;2023-01-16T03:04:58;1.10;99.90
20141;DHT22;10231;47.702;9.826;2023-01-16T03:10:38;1.10;99.90
20141;DHT22;10231;47.702;9.826;2023-01-16T03:21:19;0.90;99.90
20141;DHT22;10231;47.702;9.826;2023-01-16T03:24:06;0.90;99.90
20141;DHT22;10231;47.702;9.826;2023-01-16T03:26:41;1.00;99.90
20141;DHT22;10231;47.702;9.826;2023-01-16T03:29:27;1.00;99.90
20141;DHT22;10231;47.702;9.826;2023-01-16T03:32:12;0.90;99.90
20141;DHT22;10231;47.702;9.826;2023-01-16T03:35:19;0.90;99.90
20141;DHT22;10231;47.702;9.826;2023-01-16T03:37:50;0.70;99.90
20141;DHT22;10231;47.702;9.826;2023-01-16T03:40:20;0.70;99.90
20141;DHT22;10231;47.702;9.826;2023-01-16T03:42:51;0.70;99.90
20141;DHT22;10231;47.702;9.826;2023-01-16T03:45:42;0.60;99.90
20141;DHT22;10231;47.702;9.826;2023-01-16T03:49:02;0.60;99.90
20141;DHT22;10231;47.702;9.826;2023-01-16T03:51:30;0.70;99.90
20141;DHT22;10231;47.702;9.826;2023-01-16T03:54:16;0.70;99.90
20141;DHT22;10231;47.702;9.826;2023-01-16T03:59:19;0.80;99.90
20141;DHT22;10231;47.702;9.826;2023-01-16T04:01:54;0.80;99.90
20141;DHT22;10231;47.702;9.826;2023-01-16T04:04:32;0.70;99.90
20141;DHT22;10231;47.702;9.826;2023-01-16T04:07:08;0.70;99.90
20141;DHT22;10231;47.702;9.826;2023-01-16T04:09:51;0.50;99.90
20141;DHT22;10231;47.702;9.826;2023-01-16T04:12:22;0.50;99.90
20141;DHT22;10231;47.702;9.826;2023-01-16T04:14:53;0.50;99.90
20141;DHT22;10231;47.702;9.826;2023-01-16T04:17:20;0.50;99.90
20141;DHT22;10231;47.702;9.826;2023-01-16T04:19:45;0.50;99.90
20141;DHT22;10231;47.702;9.826;2023-01-16T04:22:25;0.60;99.90
20141;DHT22;10231;47.702;9.826;2023-01-16T04:24:53;0.50;99.90
20141;DHT22;10231;47.702;9.826;2023-01-16T04:27:20;0.50;99.90
20141;DHT22;10231;47.702;9.826;2023-01-16T04:29:45;0.50;99.90
20141;DHT22;10231;47.702;9.826;2023-01-16T04:32:12;0.60;99.90
20141;DHT22;10231;47.702;9.826;2023-01-16T04:34:37;0.60;99.90
20141;DHT22;10231;47.702;9.826;2023-01-16T04:37:03;0.50;99.90
20141;DHT22;10231;47.702;9.826;2023-01-16T04:39:28;0.50;99.90
20141;DHT22;10231;47.702;9.826;2023-01-16T04:41:54;0.50;99.90
20141;DHT22;10231;47.702;9.826;2023-01-16T04:44:19;0.40;99.90
20141;DHT22;10231;47.702;9.826;2023-01-16T04:46:45;0.40;99.90
20141;DHT22;10231;47.702;9.826;2023-01-16T04:49:11;0.40;99.90
20141;DHT22;10231;47.702;9.826;2023-01-16T04:51:37;0.40;99.90
20141;DHT22;10231;47.702;9.826;2023-01-16T04:54:07;0.50;99.90
20141;DHT22;10231;47.702;9.826;2023-01-16T04:56:33;0.50;99.90
20141;DHT22;10231;47.702;9.826;2023-01-16T04:58:59;0.50;99.90
20141;DHT22;10231;47.702;9.826;2023-01-16T05:01:25;0.50;99.90
20141;DHT22;10231;47.702;9.826;2023-01-16T05:03:51;0.50;99.90
20141;DHT22;10231;47.702;9.826;2023-01-16T05:06:16;0.50;99.90
20141;DHT22;10231;47.702;9.826;2023-01-16T05:08:42;0.40;99.90
20141;DHT22;10231;47.702;9.826;2023-01-16T05:11:08;0.40;99.90
20141;DHT22;10231;47.702;9.826;2023-01-16T05:13:34;0.30;99.90
20141;DHT22;10231;47.702;9.826;2023-01-16T05:15:59;0.30;99.90
20141;DHT22;10231;47.702;9.826;2023-01-16T05:18:25;0.20;99.90
20141;DHT22;10231;47.702;9.826;2023-01-16T05:20:51;0.20;99.90
20141;DHT22;10231;47.702;9.826;2023-01-16T05:23:17;0.10;99.90
20141;DHT22;10231;47.702;9.826;2023-01-16T05:25:42;0.10;99.90
20141;DHT22;10231;47.702;9.826;2023-01-16T05:28:08;0.10;99.90
20141;DHT22;10231;47.702;9.826;2023-01-16T05:30:34;0.10;99.90
20141;DHT22;10231;47.702;9.826;2023-01-16T05:32:59;0.10;99.90
20141;DHT22;10231;47.702;9.826;2023-01-16T05:35:26;0.10;99.90
20141;DHT22;10231;47.702;9.826;2023-01-16T05:37:52;0.00;99.90
20141;DHT22;10231;47.702;9.826;2023-01-16T05:40:18;0.00;99.90
20141;DHT22;10231;47.702;9.826;2023-01-16T05:42:44;0.00;99.90
20141;DHT22;10231;47.702;9.826;2023-01-16T05:45:10;0.00;99.90
20141;DHT22;10231;47.702;9.826;2023-01-16T05:47:36;0.00;99.90
20141;DHT22;10231;47.702;9.826;2023-01-16T05:50:02;-0.10;99.90
20141;DHT22;10231;47.702;9.826;2023-01-16T05:52:28;-0.10;99.90
20141;DHT22;10231;47.702;9.826;2023-01-16T05:54:54;0.00;99.90
20141;DHT22;10231;47.702;9.826;2023-01-16T05:57:20;-0.10;99.90
20141;DHT22;10231;47.702;9.826;2023-01-16T05:59:52;-0.10;99.90
20141;DHT22;10231;47.702;9.826;2023-01-16T06:02:19;0.00;99.90
20141;DHT22;10231;47.702;9.826;2023-01-16T06:04:45;0.10;99.90
20141;DHT22;10231;47.702;9.826;2023-01-16T06:07:11;0.30;99.90
20141;DHT22;10231;47.702;9.826;2023-01-16T06:09:38;0.30;99.90
20141;DHT22;10231;47.702;9.826;2023-01-16T06:12:03;0.40;99.90
20141;DHT22;10231;47.702;9.826;2023-01-16T06:14:29;0.50;99.90
20141;DHT22;10231;47.702;9.826;2023-01-16T06:16:55;0.60;99.90
20141;DHT22;10231;47.702;9.826;2023-01-16T06:19:20;0.60;99.90
20141;DHT22;10231;47.702;9.826;2023-01-16T06:21:46;0.50;99.90
20141;DHT22;10231;47.702;9.826;2023-01-16T06:24:11;0.50;99.90
20141;DHT22;10231;47.702;9.826;2023-01-16T06:26:37;0.40;99.90
20141;DHT22;10231;47.702;9.826;2023-01-16T06:29:02;0.40;99.90
20141;DHT22;10231;47.702;9.826;2023-01-16T06:31:28;0.40;99.90
20141;DHT22;10231;47.702;9.826;2023-01-16T06:33:54;0.40;99.90
20141;DHT22;10231;47.702;9.826;2023-01-16T06:36:19;0.40;99.90
20141;DHT22;10231;47.702;9.826;2023-01-16T06:38:45;0.40;99.90
20141;DHT22;10231;47.702;9.826;2023-01-16T06:41:10;0.40;99.90
20141;DHT22;10231;47.702;9.826;2023-01-16T06:43:36;0.40;99.90
20141;DHT22;10231;47.702;9.826;2023-01-16T06:46:02;0.40;99.90
20141;DHT22;10231;47.702;9.826;2023-01-16T06:48:27;0.30;99.90
20141;DHT22;10231;47.702;9.826;2023-01-16T06:50:53;0.40;99.90
20141;DHT22;10231;47.702;9.826;2023-01-16T06:53:19;0.30;99.90
20141;DHT22;10231;47.702;9.826;2023-01-16T06:55:45;0.20;99.90
20141;DHT22;10231;47.702;9.826;2023-01-16T06:58:11;0.20;99.90
20141;DHT22;10231;47.702;9.826;2023-01-16T07:00:36;0.10;99.90
20141;DHT22;10231;47.702;9.826;2023-01-16T07:03:03;0.10;99.90
20141;DHT22;10231;47.702;9.826;2023-01-16T07:05:30;0.10;99.90
20141;DHT22;10231;47.702;9.826;2023-01-16T07:07:56;0.10;99.90
20141;DHT22;10231;47.702;9.826;2023-01-16T07:10:23;0.20;99.90
20141;DHT22;10231;47.702;9.826;2023-01-16T07:12:49;0.20;99.90
20141;DHT22;10231;47.702;9.826;2023-01-16T07:15:15;0.10;99.90
20141;DHT22;10231;47.702;9.826;2023-01-16T07:17:59;0.10;99.90
20141;DHT22;10231;47.702;9.826;2023-01-16T07:20:52;0.00;99.90
20141;DHT22;10231;47.702;9.826;2023-01-16T07:23:38;0.00;99.90
20141;DHT22;10231;47.702;9.826;2023-01-16T07:26:06;0.10;99.90
20141;DHT22;10231;47.702;9.826;2023-01-16T07:28:33;0.10;99.90
20141;DHT22;10231;47.702;9.826;2023-01-16T07:31:00;0.20;99.90
20141;DHT22;10231;47.702;9.826;2023-01-16T07:33:28;0.20;99.90
20141;DHT22;10231;47.702;9.826;2023-01-16T07:35:54;0.30;99.90
20141;DHT22;10231;47.702;9.826;2023-01-16T07:38:19;0.30;99.90
20141;DHT22;10231;47.702;9.826;2023-01-16T07:40:45;0.50;99.90
20141;DHT22;10231;47.702;9.826;2023-01-16T07:43:10;0.60;99.90
20141;DHT22;10231;47.702;9.826;2023-01-16T07:45:36;0.50;99.90
20141;DHT22;10231;47.702;9.826;2023-01-16T07:48:02;0.60;99.90
20141;DHT22;10231;47.702;9.826;2023-01-16T07:50:28;0.70;99.90
20141;DHT22;10231;47.702;9.826;2023-01-16T07:52:54;0.80;99.90
20141;DHT22;10231;47.702;9.826;2023-01-16T07:55:19;0.80;99.90
20141;DHT22;10231;47.702;9.826;2023-01-16T07:57:45;0.80;99.90
20141;DHT22;10231;47.702;9.826;2023-01-16T08:00:11;0.80;99.90
20141;DHT22;10231;47.702;9.826;2023-01-16T08:02:38;0.70;99.90
20141;DHT22;10231;47.702;9.826;2023-01-16T08:05:04;0.70;99.90
20141;DHT22;10231;47.702;9.826;2023-01-16T08:07:30;0.80;99.90
20141;DHT22;10231;47.702;9.826;2023-01-16T08:09:55;0.80;99.90
20141;DHT22;10231;47.702;9.826;2023-01-16T08:12:21;0.70;99.90
20141;DHT22;10231;47.702;9.826;2023-01-16T08:14:46;0.70;99.90
20141;DHT22;10231;47.702;9.826;2023-01-16T08:17:12;0.80;99.90
20141;DHT22;10231;47.702;9.826;2023-01-16T08:19:38;0.70;99.90
20141;DHT22;10231;47.702;9.826;2023-01-16T08:22:03;0.80;99.90
20141;DHT22;10231;47.702;9.826;2023-01-16T08:24:29;0.70;99.90
20141;DHT22;10231;47.702;9.826;2023-01-16T08:26:55;0.80;99.90
20141;DHT22;10231;47.702;9.826;2023-01-16T08:29:21;1.00;99.90
20141;DHT22;10231;47.702;9.826;2023-01-16T08:31:47;1.00;99.90
20141;DHT22;10231;47.702;9.826;2023-01-16T08:34:12;1.10;99.90
20141;DHT22;10231;47.702;9.826;2023-01-16T08:36:38;1.10;99.90
20141;DHT22;10231;47.702;9.826;2023-01-16T08:39:03;1.10;99.90
20141;DHT22;10231;47.702;9.826;2023-01-16T08:41:29;1.10;99.90
20141;DHT22;10231;47.702;9.826;2023-01-16T08:44:13;1.20;99.90
20141;DHT22;10231;47.702;9.826;2023-01-16T08:47:03;1.30;99.90
20141;DHT22;10231;47.702;9.826;2023-01-16T08:49:48;1.30;99.90
20141;DHT22;10231;47.702;9.826;2023-01-16T08:52:34;1.40;99.90
20141;DHT22;10231;47.702;9.826;2023-01-16T08:55:00;1.40;99.90
20141;DHT22;10231;47.702;9.826;2023-01-16T08:57:26;1.40;99.90
20141;DHT22;10231;47.702;9.826;2023-01-16T08:59:56;1.40;99.90
20141;DHT22;10231;47.702;9.826;2023-01-16T09:02:23;1.50;99.90
20141;DHT22;10231;47.702;9.826;2023-01-16T09:04:50;1.50;99.90
20141;DHT22;10231;47.702;9.826;2023-01-16T09:07:16;1.50;99.90
20141;DHT22;10231;47.702;9.826;2023-01-16T09:09:41;1.60;99.90
20141;DHT22;10231;47.702;9.826;2023-01-16T09:12:09;1.70;99.90
20141;DHT22;10231;47.702;9.826;2023-01-16T09:14:53;1.70;99.90
20141;DHT22;10231;47.702;9.826;2023-01-16T09:17:20;1.70;99.90
20141;DHT22;10231;47.702;9.826;2023-01-16T09:19:46;1.80;99.90
20141;DHT22;10231;47.702;9.826;2023-01-16T09:22:11;1.80;99.90
20141;DHT22;10231;47.702;9.826;2023-01-16T09:24:37;1.90;99.90
20141;DHT22;10231;47.702;9.826;2023-01-16T09:27:04;1.90;99.90
20141;DHT22;10231;47.702;9.826;2023-01-16T09:29:30;2.00;99.90
20141;DHT22;10231;47.702;9.826;2023-01-16T09:31:56;2.00;99.90
20141;DHT22;10231;47.702;9.826;2023-01-16T09:34:21;2.00;99.90
20141;DHT22;10231;47.702;9.826;2023-01-16T09:36:47;2.10;99.90
20141;DHT22;10231;47.702;9.826;2023-01-16T09:39:12;2.10;99.90
20141;DHT22;10231;47.702;9.826;2023-01-16T09:44:49;2.10;99.90
20141;DHT22;10231;47.702;9.826;2023-01-16T09:47:16;2.20;99.90
20141;DHT22;10231;47.702;9.826;2023-01-16T09:49:52;2.30;99.90
20141;DHT22;10231;47.702;9.826;2023-01-16T09:52:23;2.20;99.90
20141;DHT22;10231;47.702;9.826;2023-01-16T09:55:26;2.20;99.90
20141;DHT22;10231;47.702;9.826;2023-01-16T09:58:20;2.20;99.90
20141;DHT22;10231;47.702;9.826;2023-01-16T10:01:11;2.30;99.90
20141;DHT22;10231;47.702;9.826;2023-01-16T10:03:38;2.40;99.90
20141;DHT22;10231;47.702;9.826;2023-01-16T10:06:18;2.40;99.90
20141;DHT22;10231;47.702;9.826;2023-01-16T10:09:14;2.40;99.90
20141;DHT22;10231;47.702;9.826;2023-01-16T10:11:49;2.40;99.90
20141;DHT22;10231;47.702;9.826;2023-01-16T10:17:20;2.50;99.90
20141;DHT22;10231;47.702;9.826;2023-01-16T10:20:20;2.60;99.90
20141;DHT22;10231;47.702;9.826;2023-01-16T10:23:11;2.70;99.90
20141;DHT22;10231;47.702;9.826;2023-01-16T10:26:00;2.70;99.90
20141;DHT22;10231;47.702;9.826;2023-01-16T10:31:13;2.80;99.90
20141;DHT22;10231;47.702;9.826;2023-01-16T10:34:09;2.90;99.90
20141;DHT22;10231;47.702;9.826;2023-01-16T10:36:40;2.90;99.90
20141;DHT22;10231;47.702;9.826;2023-01-16T10:39:09;2.90;99.90
20141;DHT22;10231;47.702;9.826;2023-01-16T10:41:40;3.00;99.90
20141;DHT22;10231;47.702;9.826;2023-01-16T10:44:36;3.00;99.90
20141;DHT22;10231;47.702;9.826;2023-01-16T10:47:28;3.00;99.90
20141;DHT22;10231;47.702;9.826;2023-01-16T10:50:13;3.10;99.90
20141;DHT22;10231;47.702;9.826;2023-01-16T10:52:39;3.10;99.90
20141;DHT22;10231;47.702;9.826;2023-01-16T10:55:06;3.10;99.90
20141;DHT22;10231;47.702;9.826;2023-01-16T10:57:33;3.10;99.90
20141;DHT22;10231;47.702;9.826;2023-01-16T11:00:04;3.10;99.90
20141;DHT22;10231;47.702;9.826;2023-01-16T11:02:40;3.20;99.90
20141;DHT22;10231;47.702;9.826;2023-01-16T11:05:33;3.20;99.90
20141;DHT22;10231;47.702;9.826;2023-01-16T11:08:14;3.10;99.90
20141;DHT22;10231;47.702;9.826;2023-01-16T11:10:42;3.00;99.90
20141;DHT22;10231;47.702;9.826;2023-01-16T11:13:20;2.90;99.90
20141;DHT22;10231;47.702;9.826;2023-01-16T11:18:55;2.80;99.90
20141;DHT22;10231;47.702;9.826;2023-01-16T11:21:31;2.80;99.90
20141;DHT22;10231;47.702;9.826;2023-01-16T11:24:19;2.70;99.90
20141;DHT22;10231;47.702;9.826;2023-01-16T11:26:51;2.80;99.90
20141;DHT22;10231;47.702;9.826;2023-01-16T11:29:19;2.80;99.90
20141;DHT22;10231;47.702;9.826;2023-01-16T11:31:58;2.70;99.90
20141;DHT22;10231;47.702;9.826;2023-01-16T11:34:26;2.70;99.90
20141;DHT22;10231;47.702;9.826;2023-01-16T11:37:01;2.80;99.90
20141;DHT22;10231;47.702;9.826;2023-01-16T11:39:33;2.80;99.90
20141;DHT22;10231;47.702;9.826;2023-01-16T11:42:03;2.90;99.90
20141;DHT22;10231;47.702;9.826;2023-01-16T11:44:49;2.90;99.90
20141;DHT22;10231;47.702;9.826;2023-01-16T11:47:40;2.80;99.90
20141;DHT22;10231;47.702;9.826;2023-01-16T11:50:29;2.80;99.90
20141;DHT22;10231;47.702;9.826;2023-01-16T11:52:56;2.70;99.90
20141;DHT22;10231;47.702;9.826;2023-01-16T11:55:28;2.70;99.90
20141;DHT22;10231;47.702;9.826;2023-01-16T11:58:23;2.60;99.90
20141;DHT22;10231;47.702;9.826;2023-01-16T12:03:53;2.60;99.90
20141;DHT22;10231;47.702;9.826;2023-01-16T12:09:15;2.60;99.90
20141;DHT22;10231;47.702;9.826;2023-01-16T12:12:21;2.60;99.90
20141;DHT22;10231;47.702;9.826;2023-01-16T12:20:51;2.70;99.90
20141;DHT22;10231;47.702;9.826;2023-01-16T12:26:17;2.70;99.90
20141;DHT22;10231;47.702;9.826;2023-01-16T12:29:12;2.70;99.90
20141;DHT22;10231;47.702;9.826;2023-01-16T12:32:15;2.70;99.90
20141;DHT22;10231;47.702;9.826;2023-01-16T12:40:38;2.80;99.90
20141;DHT22;10231;47.702;9.826;2023-01-16T12:43:32;2.80;99.90
20141;DHT22;10231;47.702;9.826;2023-01-16T12:46:08;2.70;99.90
20141;DHT22;10231;47.702;9.826;2023-01-16T12:57:52;2.60;99.90
20141;DHT22;10231;47.702;9.826;2023-01-16T13:00:10;2.60;99.90
20141;DHT22;10231;47.702;9.826;2023-01-16T13:02:57;2.60;99.90
20141;DHT22;10231;47.702;9.826;2023-01-16T13:05:31;2.60;99.90
20141;DHT22;10231;47.702;9.826;2023-01-16T13:10:35;2.60;99.90
20141;DHT22;10231;47.702;9.826;2023-01-16T13:13:29;2.70;99.90
20141;DHT22;10231;47.702;9.826;2023-01-16T13:16:10;2.70;99.90
20141;DHT22;10231;47.702;9.826;2023-01-16T13:18:55;2.80;99.90
20141;DHT22;10231;47.702;9.826;2023-01-16T13:21:30;2.80;99.90
20141;DHT22;10231;47.702;9.826;2023-01-16T13:24:10;2.80;99.90
20141;DHT22;10231;47.702;9.826;2023-01-16T13:26:37;2.80;99.90
20141;DHT22;10231;47.702;9.826;2023-01-16T13:29:24;2.80;99.90
20141;DHT22;10231;47.702;9.826;2023-01-16T13:31:56;2.80;99.90
20141;DHT22;10231;47.702;9.826;2023-01-16T13:34:39;2.80;99.90
20141;DHT22;10231;47.702;9.826;2023-01-16T13:37:32;2.80;99.90
20141;DHT22;10231;47.702;9.826;2023-01-16T13:40:58;2.80;99.90
20141;DHT22;10231;47.702;9.826;2023-01-16T13:43:29;2.70;99.90
20141;DHT22;10231;47.702;9.826;2023-01-16T13:46:15;2.80;99.90
20141;DHT22;10231;47.702;9.826;2023-01-16T13:48:41;2.80;99.90
20141;DHT22;10231;47.702;9.826;2023-01-16T13:51:15;2.90;99.90
20141;DHT22;10231;47.702;9.826;2023-01-16T13:53:45;2.90;99.90
20141;DHT22;10231;47.702;9.826;2023-01-16T13:56:19;3.00;99.90
20141;DHT22;10231;47.702;9.826;2023-01-16T13:58:58;3.10;99.90
20141;DHT22;10231;47.702;9.826;2023-01-16T14:06:51;3.60;99.90
20141;DHT22;10231;47.702;9.826;2023-01-16T14:13:00;5.50;99.90
20141;DHT22;10231;47.702;9.826;2023-01-16T14:15:59;6.70;99.90
20141;DHT22;10231;47.702;9.826;2023-01-16T14:21:43;7.20;99.90
20141;DHT22;10231;47.702;9.826;2023-01-16T14:24:25;7.20;99.90
20141;DHT22;10231;47.702;9.826;2023-01-16T14:26:57;6.90;99.90
20141;DHT22;10231;47.702;9.826;2023-01-16T14:29:27;6.10;99.90
20141;DHT22;10231;47.702;9.826;2023-01-16T14:32:17;5.70;99.90
20141;DHT22;10231;47.702;9.826;2023-01-16T14:34:49;5.30;99.90
20141;DHT22;10231;47.702;9.826;2023-01-16T14:39:50;4.80;99.90
20141;DHT22;10231;47.702;9.826;2023-01-16T14:42:38;4.50;99.90
20141;DHT22;10231;47.702;9.826;2023-01-16T14:45:29;4.30;99.90
20141;DHT22;10231;47.702;9.826;2023-01-16T14:57:27;3.90;99.90
20141;DHT22;10231;47.702;9.826;2023-01-16T15:00:02;3.80;99.90
20141;DHT22;10231;47.702;9.826;2023-01-16T15:02:34;3.80;99.90
20141;DHT22;10231;47.702;9.826;2023-01-16T15:07:38;3.80;99.90
20141;DHT22;10231;47.702;9.826;2023-01-16T15:13:23;3.70;99.90
20141;DHT22;10231;47.702;9.826;2023-01-16T15:15:57;3.70;99.90
20141;DHT22;10231;47.702;9.826;2023-01-16T15:18:24;3.60;99.90
20141;DHT22;10231;47.702;9.826;2023-01-16T15:21:15;3.60;99.90
20141;DHT22;10231;47.702;9.826;2023-01-16T15:24:05;3.60;99.90
20141;DHT22;10231;47.702;9.826;2023-01-16T15:26:57;3.50;99.90
20141;DHT22;10231;47.702;9.826;2023-01-16T15:29:55;3.60;99.90
20141;DHT22;10231;47.702;9.826;2023-01-16T15:32:25;3.40;99.90
20141;DHT22;10231;47.702;9.826;2023-01-16T15:35:13;3.40;99.90
20141;DHT22;10231;47.702;9.826;2023-01-16T15:37:51;3.40;99.90
20141;DHT22;10231;47.702;9.826;2023-01-16T15:40:28;3.30;99.90
20141;DHT22;10231;47.702;9.826;2023-01-16T15:42:55;3.30;99.90
20141;DHT22;10231;47.702;9.826;2023-01-16T15:45:53;3.40;99.90
20141;DHT22;10231;47.702;9.826;2023-01-16T15:48:51;3.40;99.90
20141;DHT22;10231;47.702;9.826;2023-01-16T15:51:21;3.30;99.90
20141;DHT22;10231;47.702;9.826;2023-01-16T15:53:49;3.40;99.90
20141;DHT22;10231;47.702;9.826;2023-01-16T15:56:22;3.40;99.90
20141;DHT22;10231;47.702;9.826;2023-01-16T15:58:53;3.40;99.90
20141;DHT22;10231;47.702;9.826;2023-01-16T16:01:30;3.30;99.90
20141;DHT22;10231;47.702;9.826;2023-01-16T16:03:57;3.30;99.90
20141;DHT22;10231;47.702;9.826;2023-01-16T16:06:24;3.30;99.90
20141;DHT22;10231;47.702;9.826;2023-01-16T16:08:52;3.30;99.90
20141;DHT22;10231;47.702;9.826;2023-01-16T16:11:21;3.30;99.90
20141;DHT22;10231;47.702;9.826;2023-01-16T16:14:06;3.30;99.90
20141;DHT22;10231;47.702;9.826;2023-01-16T16:17:03;3.30;99.90
20141;DHT22;10231;47.702;9.826;2023-01-16T16:19:48;3.30;99.90
20141;DHT22;10231;47.702;9.826;2023-01-16T16:22:19;3.30;99.90
20141;DHT22;10231;47.702;9.826;2023-01-16T16:25:28;3.30;99.90
20141;DHT22;10231;47.702;9.826;2023-01-16T16:27:55;3.20;99.90
20141;DHT22;10231;47.702;9.826;2023-01-16T16:30:28;3.20;99.90
20141;DHT22;10231;47.702;9.826;2023-01-16T16:32:54;3.20;99.90
20141;DHT22;10231;47.702;9.826;2023-01-16T16:35:32;3.20;99.90
20141;DHT22;10231;47.702;9.826;2023-01-16T16:37:59;3.30;99.90
20141;DHT22;10231;47.702;9.826;2023-01-16T16:40:26;3.50;99.90
20141;DHT22;10231;47.702;9.826;2023-01-16T16:42:57;3.60;99.90
20141;DHT22;10231;47.702;9.826;2023-01-16T16:45:30;3.70;99.90
20141;DHT22;10231;47.702;9.826;2023-01-16T16:50:43;3.90;99.90
20141;DHT22;10231;47.702;9.826;2023-01-16T16:55:45;4.00;99.90
20141;DHT22;10231;47.702;9.826;2023-01-16T16:58:21;4.00;99.90
20141;DHT22;10231;47.702;9.826;2023-01-16T17:00:47;4.00;99.90
20141;DHT22;10231;47.702;9.826;2023-01-16T17:03:18;4.00;99.90
20141;DHT22;10231;47.702;9.826;2023-01-16T17:05:45;4.00;99.90
20141;DHT22;10231;47.702;9.826;2023-01-16T17:08:26;4.00;99.90
20141;DHT22;10231;47.702;9.826;2023-01-16T17:10:56;4.00;99.90
20141;DHT22;10231;47.702;9.826;2023-01-16T17:13:23;4.10;99.90
20141;DHT22;10231;47.702;9.826;2023-01-16T17:15:52;4.10;99.90
20141;DHT22;10231;47.702;9.826;2023-01-16T17:18:19;4.20;99.90
20141;DHT22;10231;47.702;9.826;2023-01-16T17:20:45;4.20;99.90
20141;DHT22;10231;47.702;9.826;2023-01-16T17:23:16;4.30;99.90
20141;DHT22;10231;47.702;9.826;2023-01-16T17:25:42;4.30;99.90
20141;DHT22;10231;47.702;9.826;2023-01-16T17:28:09;4.40;99.90
20141;DHT22;10231;47.702;9.826;2023-01-16T17:30:35;4.40;99.90
20141;DHT22;10231;47.702;9.826;2023-01-16T17:33:13;4.40;99.90
20141;DHT22;10231;47.702;9.826;2023-01-16T17:35:43;4.40;99.90
20141;DHT22;10231;47.702;9.826;2023-01-16T17:38:17;4.40;99.90
20141;DHT22;10231;47.702;9.826;2023-01-16T17:40:43;4.40;99.90
20141;DHT22;10231;47.702;9.826;2023-01-16T17:43:17;4.50;99.90
20141;DHT22;10231;47.702;9.826;2023-01-16T17:46:09;4.50;99.90
20141;DHT22;10231;47.702;9.826;2023-01-16T17:48:35;4.60;99.90
20141;DHT22;10231;47.702;9.826;2023-01-16T17:51:02;4.60;99.90
20141;DHT22;10231;47.702;9.826;2023-01-16T17:53:29;4.70;99.90
20141;DHT22;10231;47.702;9.826;2023-01-16T17:55:57;4.70;99.90
20141;DHT22;10231;47.702;9.826;2023-01-16T18:01:02;4.80;99.90
20141;DHT22;10231;47.702;9.826;2023-01-16T18:03:29;4.80;99.90
20141;DHT22;10231;47.702;9.826;2023-01-16T18:06:03;4.70;99.90
20141;DHT22;10231;47.702;9.826;2023-01-16T18:08:29;4.80;99.90
20141;DHT22;10231;47.702;9.826;2023-01-16T18:10:55;4.90;99.90
20141;DHT22;10231;47.702;9.826;2023-01-16T18:13:21;5.00;99.90